Time;durP1;ratioP1;P1;durP2;ratioP2;P2;SDS_P1;SDS_P2;PMS_P1;PMS_P2;Temp;Humidity;BMP_temperature;BMP_pressure;BME280_temperature;BME280_humidity;BME280_pressure;Samples;Min_cycle;Max_cycle;Signal;HPM_P1;HPM_P2
2023/01/17 00:01:08;;;;;;;32.47;18.37;;;2.10;1.00;;;;;;6210591;23;20173;-96
2023/01/17 00:09:51;;;;;;;36.87;18.17;;;2.10;1.00;;;;;;6211412;23;20549;-96
2023/01/17 00:12:02;;;;;;;30.30;17.27;;;2.10;1.00;;;;;;6058634;23;20167;-96
2023/01/17 00:14:29;;;;;;;34.27;18.50;;;2.00;1.00;;;;;;6048899;23;20212;-96
2023/01/17 00:16:56;;;;;;;41.37;20.23;;;2.00;1.00;;;;;;6052106;23;20195;-96
2023/01/17 01:34:11;;;;;;;42.73;24.20;;;2.40;1.00;;;;;;6189457;23;20206;-96
2023/01/17 01:36:38;;;;;;;42.13;24.13;;;2.40;1.00;;;;;;6190826;23;20189;-96
2023/01/17 01:39:05;;;;;;;40.93;24.57;;;2.40;1.00;;;;;;6190509;23;20223;-96
2023/01/17 01:41:33;;;;;;;43.60;24.47;;;2.50;1.00;;;;;;6189579;23;20180;-96
2023/01/17 01:44:00;;;;;;;42.57;25.30;;;2.40;1.00;;;;;;6189290;23;20798;-95
2023/01/17 01:46:32;;;;;;;42.27;23.13;;;2.50;1.00;;;;;;6205982;23;20159;-96
2023/01/17 01:49:02;;;;;;;45.37;23.87;;;2.50;1.00;;;;;;6209066;23;20201;-96
2023/01/17 01:51:33;;;;;;;42.20;23.13;;;2.50;1.00;;;;;;6214832;23;20165;-96
2023/01/17 01:54:05;;;;;;;45.07;24.67;;;2.50;1.00;;;;;;6207616;23;20240;-96
2023/01/17 01:56:33;;;;;;;43.10;23.40;;;2.50;1.00;;;;;;6199939;23;20201;-96
2023/01/17 01:59:04;;;;;;;40.37;23.53;;;2.50;1.00;;;;;;6190622;23;20184;-95
2023/01/17 02:01:31;;;;;;;43.40;23.93;;;2.50;1.00;;;;;;6189713;23;20146;-96
2023/01/17 02:03:58;;;;;;;44.30;24.40;;;2.50;1.00;;;;;;6192151;23;20177;-94
2023/01/17 02:06:32;;;;;;;41.67;24.03;;;2.50;1.00;;;;;;6191208;23;20224;-96
2023/01/17 02:09:03;;;;;;;40.73;23.83;;;2.60;1.00;;;;;;6204299;23;20162;-96
2023/01/17 02:11:30;;;;;;;42.63;24.37;;;2.60;1.00;;;;;;6206289;23;20150;-96
2023/01/17 02:13:59;;;;;;;44.33;24.73;;;2.60;1.00;;;;;;6205365;23;20177;-95
2023/01/17 02:16:41;;;;;;;41.90;24.03;;;2.60;1.00;;;;;;6203868;23;20212;-95
2023/01/17 02:19:36;;;;;;;44.67;24.37;;;2.60;1.00;;;;;;6195944;23;20188;-96
2023/01/17 02:22:18;;;;;;;38.63;23.17;;;2.60;1.00;;;;;;6202103;23;20158;-96
2023/01/17 02:25:02;;;;;;;40.73;23.73;;;2.60;1.00;;;;;;6205037;23;20149;-96
2023/01/17 02:27:37;;;;;;;42.67;23.40;;;2.60;1.00;;;;;;6201604;23;20173;-96
2023/01/17 02:30:32;;;;;;;39.47;21.77;;;2.60;1.00;;;;;;6202305;23;20168;-96
2023/01/17 02:33:07;;;;;;;38.13;22.37;;;2.60;1.00;;;;;;6203284;23;20220;-96
2023/01/17 02:35:47;;;;;;;44.40;23.80;;;2.60;1.00;;;;;;6205720;23;20533;-96
2023/01/17 02:38:30;;;;;;;45.97;24.90;;;2.60;1.00;;;;;;6204792;23;20161;-96
2023/01/17 02:41:04;;;;;;;45.43;25.37;;;2.60;1.00;;;;;;6211125;23;20162;-96
2023/01/17 02:43:32;;;;;;;38.67;22.23;;;2.60;1.00;;;;;;6211292;23;20153;-96
2023/01/17 02:46:01;;;;;;;43.30;23.53;;;2.70;1.00;;;;;;6212337;23;20169;-96
2023/01/17 02:48:32;;;;;;;44.03;23.63;;;2.70;1.00;;;;;;6212112;23;20193;-95
2023/01/17 02:51:20;;;;;;;41.53;23.40;;;2.70;1.00;;;;;;6212921;23;20173;-96
2023/01/17 02:54:00;;;;;;;40.60;22.77;;;2.70;1.00;;;;;;6213358;23;20138;-96
2023/01/17 02:56:41;;;;;;;41.03;21.83;;;2.80;1.00;;;;;;6209911;23;20185;-96
2023/01/17 02:59:22;;;;;;;42.10;23.47;;;2.80;1.00;;;;;;6213410;23;20181;-96
2023/01/17 03:02:03;;;;;;;41.67;23.50;;;2.80;1.00;;;;;;6204334;23;20277;-96
2023/01/17 03:04:39;;;;;;;39.67;22.87;;;2.80;1.00;;;;;;6212876;23;20145;-96
2023/01/17 03:07:11;;;;;;;47.03;24.27;;;2.80;1.00;;;;;;6208774;23;20154;-96
2023/01/17 03:09:42;;;;;;;41.50;22.50;;;2.80;1.00;;;;;;6207938;23;20169;-96
2023/01/17 03:12:09;;;;;;;46.17;24.77;;;2.70;1.00;;;;;;6205935;23;20162;-95
2023/01/17 03:14:37;;;;;;;41.63;24.13;;;2.60;1.00;;;;;;6202408;23;20169;-95
2023/01/17 03:17:05;;;;;;;43.07;23.13;;;2.60;1.00;;;;;;6204953;23;20537;-96
2023/01/17 03:19:33;;;;;;;43.77;23.90;;;2.60;1.00;;;;;;6205747;23;20175;-96
2023/01/17 03:22:00;;;;;;;42.70;23.77;;;2.50;1.00;;;;;;6204641;23;20170;-96
2023/01/17 03:24:27;;;;;;;42.77;23.60;;;2.50;1.00;;;;;;6205485;23;20224;-96
2023/01/17 03:26:54;;;;;;;42.33;22.27;;;2.40;1.00;;;;;;6207632;23;20254;-96
2023/01/17 03:29:21;;;;;;;43.07;24.03;;;2.40;1.00;;;;;;6205595;23;20203;-96
2023/01/17 03:31:48;;;;;;;44.67;24.30;;;2.40;1.00;;;;;;6207228;23;20173;-96
2023/01/17 03:34:17;;;;;;;40.07;22.90;;;2.40;1.00;;;;;;6205402;23;20208;-96
2023/01/17 03:36:44;;;;;;;43.10;24.40;;;2.40;1.00;;;;;;6206233;23;20269;-96
2023/01/17 03:39:11;;;;;;;43.30;23.50;;;2.40;1.00;;;;;;6209347;23;20211;-95
2023/01/17 03:41:38;;;;;;;40.17;23.77;;;2.50;1.00;;;;;;6209829;23;20176;-96
2023/01/17 03:44:09;;;;;;;44.00;24.30;;;2.60;1.00;;;;;;6209240;23;20196;-95
2023/01/17 03:46:36;;;;;;;42.63;24.37;;;2.70;1.00;;;;;;6208609;23;20158;-95
2023/01/17 03:49:03;;;;;;;44.17;23.97;;;2.80;1.00;;;;;;6210089;23;20165;-96
2023/01/17 03:51:32;;;;;;;44.20;24.87;;;2.90;1.00;;;;;;6210894;23;20211;-95
2023/01/17 03:56:34;;;;;;;44.13;25.10;;;3.00;1.00;;;;;;6192941;23;20253;-96
2023/01/17 03:59:01;;;;;;;42.67;22.87;;;3.10;1.00;;;;;;6210186;23;20184;-96
2023/01/17 04:01:28;;;;;;;39.70;22.07;;;3.10;1.00;;;;;;6210090;23;20156;-96
2023/01/17 04:03:55;;;;;;;42.33;23.67;;;3.20;1.00;;;;;;6207094;23;20169;-96
2023/01/17 04:06:23;;;;;;;40.63;23.63;;;3.20;1.00;;;;;;6204579;23;20255;-95
2023/01/17 04:08:51;;;;;;;41.33;22.30;;;3.20;1.00;;;;;;6205775;23;20157;-96
2023/01/17 04:11:18;;;;;;;36.30;21.67;;;3.20;1.00;;;;;;6205638;23;20176;-95
2023/01/17 04:13:45;;;;;;;35.50;21.67;;;3.30;1.00;;;;;;6199798;23;20220;-96
2023/01/17 04:16:16;;;;;;;39.13;21.80;;;3.30;1.00;;;;;;6211137;23;20201;-96
2023/01/17 04:18:43;;;;;;;39.17;22.33;;;3.30;1.00;;;;;;6213965;23;20153;-96
2023/01/17 04:21:10;;;;;;;40.53;23.07;;;3.30;1.00;;;;;;6208188;23;20189;-95
2023/01/17 04:23:38;;;;;;;38.07;22.10;;;3.30;1.00;;;;;;6177220;23;20174;-96
2023/01/17 04:26:06;;;;;;;39.47;22.60;;;3.30;1.00;;;;;;6178667;23;20174;-96
2023/01/17 04:28:33;;;;;;;35.90;21.70;;;3.20;1.00;;;;;;6182044;23;20181;-96
2023/01/17 04:31:01;;;;;;;37.17;22.10;;;3.20;1.00;;;;;;6182680;23;20201;-96
2023/01/17 04:33:28;;;;;;;39.70;23.17;;;3.10;1.00;;;;;;6181710;23;20170;-96
2023/01/17 04:35:55;;;;;;;34.10;20.90;;;3.10;1.00;;;;;;6180139;23;20197;-96
2023/01/17 04:38:23;;;;;;;39.43;21.23;;;3.10;1.00;;;;;;6180551;23;20198;-96
2023/01/17 04:40:50;;;;;;;40.27;22.37;;;3.20;1.00;;;;;;6181488;23;20174;-96
2023/01/17 04:43:19;;;;;;;38.97;21.93;;;3.20;1.00;;;;;;6180757;23;20171;-96
2023/01/17 04:45:46;;;;;;;34.47;20.50;;;3.20;1.00;;;;;;6180560;23;20170;-96
2023/01/17 04:48:13;;;;;;;36.97;19.90;;;3.20;1.00;;;;;;6179032;23;20166;-96
2023/01/17 04:50:40;;;;;;;36.47;19.93;;;3.30;1.00;;;;;;6181076;23;20150;-96
2023/01/17 04:53:08;;;;;;;35.67;19.87;;;3.30;1.00;;;;;;6177315;23;20174;-96
2023/01/17 04:55:35;;;;;;;35.07;19.80;;;3.30;1.00;;;;;;6178336;23;20177;-96
2023/01/17 04:58:02;;;;;;;39.00;20.83;;;3.30;1.00;;;;;;6182028;23;20185;-96
2023/01/17 05:00:30;;;;;;;33.13;18.87;;;3.30;1.00;;;;;;6182980;23;20182;-96
2023/01/17 05:02:57;;;;;;;37.00;19.60;;;3.30;1.00;;;;;;6182380;23;20295;-96
2023/01/17 05:05:24;;;;;;;34.95;19.75;;;3.40;1.00;;;;;;6193307;23;20193;-86
2023/01/17 05:18:15;;;;;;;33.23;19.40;;;3.50;1.00;;;;;;6164805;23;20188;-94
2023/01/17 05:28:29;;;;;;;34.57;19.20;;;3.60;1.00;;;;;;6202029;23;20204;-96
2023/01/17 05:30:56;;;;;;;30.67;18.53;;;3.60;1.00;;;;;;6212047;23;20169;-95
2023/01/17 05:46:16;;;;;;;32.53;17.90;;;3.60;1.00;;;;;;6152976;23;20181;-95
2023/01/17 05:48:43;;;;;;;30.53;18.17;;;3.60;1.00;;;;;;6149301;23;20544;-96
2023/01/17 05:56:24;;;;;;;27.37;16.73;;;3.60;1.00;;;;;;6188118;23;20196;-95
2023/01/17 05:58:51;;;;;;;31.50;17.50;;;3.60;1.00;;;;;;6182321;23;20205;-96
2023/01/17 06:32:17;;;;;;;26.33;13.10;;;3.80;1.00;;;;;;6180804;23;20197;-96
2023/01/17 06:34:45;;;;;;;25.00;14.20;;;3.80;1.00;;;;;;6214022;23;20191;-96
2023/01/17 06:37:12;;;;;;;25.63;13.87;;;3.80;1.00;;;;;;6211427;23;20216;-96
2023/01/17 06:39:39;;;;;;;21.87;13.20;;;3.90;1.00;;;;;;6213460;23;20171;-96
2023/01/17 06:42:09;;;;;;;24.23;13.87;;;3.90;1.00;;;;;;6212787;23;20674;-96
2023/01/17 06:44:36;;;;;;;24.63;14.07;;;3.90;1.00;;;;;;6212675;23;20181;-96
2023/01/17 06:47:03;;;;;;;21.27;12.80;;;4.00;1.00;;;;;;6212861;23;20165;-96
2023/01/17 06:49:31;;;;;;;23.93;13.43;;;4.00;1.00;;;;;;6211759;23;20158;-96
2023/01/17 06:51:58;;;;;;;22.87;14.70;;;4.00;1.00;;;;;;6212736;23;20173;-96
2023/01/17 06:54:25;;;;;;;26.90;14.70;;;4.00;1.00;;;;;;6212473;23;20169;-96
2023/01/17 06:56:53;;;;;;;24.60;13.10;;;4.00;1.00;;;;;;6212079;23;20228;-96
2023/01/17 06:59:20;;;;;;;21.27;12.13;;;4.00;1.00;;;;;;6212587;23;20171;-96
2023/01/17 07:01:49;;;;;;;20.33;12.37;;;4.00;1.00;;;;;;6213133;23;20197;-96
2023/01/17 07:04:16;;;;;;;19.30;11.30;;;4.00;1.00;;;;;;6213107;23;20178;-96
2023/01/17 07:06:45;;;;;;;20.67;12.33;;;4.00;1.00;;;;;;6202367;23;20201;-96
2023/01/17 07:09:12;;;;;;;21.33;11.97;;;4.00;1.00;;;;;;6210399;23;20170;-90
2023/01/17 07:11:39;;;;;;;20.90;11.90;;;4.00;1.00;;;;;;6183980;23;20167;-95
2023/01/17 07:14:12;;;;;;;20.73;12.27;;;4.00;1.00;;;;;;6184197;23;20197;-96
2023/01/17 07:16:39;;;;;;;20.83;11.63;;;4.10;1.00;;;;;;6183977;23;20153;-96
2023/01/17 07:21:37;;;;;;;19.50;11.13;;;4.10;1.00;;;;;;6154641;23;20179;-96
2023/01/17 07:24:06;;;;;;;23.57;12.87;;;4.10;1.00;;;;;;6155019;23;20161;-96
2023/01/17 07:26:36;;;;;;;31.37;16.70;;;4.20;1.00;;;;;;6154839;23;20170;-96
2023/01/17 07:29:06;;;;;;;31.10;16.63;;;4.20;1.00;;;;;;6154926;23;20154;-96
2023/01/17 07:31:35;;;;;;;19.60;11.97;;;4.20;1.00;;;;;;6154784;23;20155;-96
2023/01/17 07:34:02;;;;;;;20.20;12.40;;;4.20;1.00;;;;;;6168314;23;20189;-86
2023/01/17 07:49:28;;;;;;;12.50;6.67;;;4.40;1.00;;;;;;6205644;23;20188;-95
2023/01/17 07:51:55;;;;;;;10.20;5.97;;;4.40;1.00;;;;;;6214221;23;20161;-96
2023/01/17 07:54:22;;;;;;;10.60;6.27;;;4.50;1.00;;;;;;6213821;23;20182;-94
2023/01/17 07:59:21;;;;;;;8.77;5.60;;;4.50;1.00;;;;;;6193516;23;20194;-95
2023/01/17 08:01:48;;;;;;;7.93;5.50;;;4.50;1.00;;;;;;6214113;23;20165;-96
2023/01/17 08:04:15;;;;;;;8.30;5.37;;;4.50;1.00;;;;;;6213433;23;20156;-96
2023/01/17 08:06:46;;;;;;;10.23;5.87;;;4.50;1.00;;;;;;6177281;23;20181;-96
2023/01/17 08:11:41;;;;;;;6.70;4.90;;;4.70;1.00;;;;;;6168053;23;20199;-84
2023/01/17 08:50:27;;;;;;;3.33;2.70;;;5.40;1.00;;;;;;6162372;23;21237;-85
2023/01/17 09:21:26;;;;;;;5.67;3.33;;;5.90;99.90;;;;;;6219497;23;20186;-96
2023/01/17 09:38:24;;;;;;;7.30;4.10;;;5.80;99.90;;;;;;6158253;23;21073;31
2023/01/17 09:51:21;;;;;;;12.00;7.17;;;6.10;99.90;;;;;;6130078;23;21225;-88
2023/01/17 10:32:59;;;;;;;5.97;3.53;;;6.60;1.00;;;;;;6188612;23;20193;-96
2023/01/17 10:35:29;;;;;;;8.47;3.80;;;6.60;1.00;;;;;;6136166;23;20188;-94
2023/01/17 10:37:58;;;;;;;7.27;3.93;;;6.60;1.00;;;;;;6213640;23;20194;-95
2023/01/17 10:45:42;;;;;;;13.80;5.13;;;6.70;1.00;;;;;;6172706;23;20201;-91
2023/01/17 11:03:44;;;;;;;11.27;4.73;;;6.50;1.00;;;;;;6154467;23;21152;-96
2023/01/17 11:19:21;;;;;;;4.37;2.60;;;6.90;1.00;;;;;;6163154;23;20188;-83
2023/01/17 12:39:50;;;;;;;6.37;2.17;;;6.90;99.90;;;;;;6159529;23;20180;31
2023/01/17 14:21:31;;;;;;;7.50;5.37;;;5.60;1.00;;;;;;6181804;23;20406;-89
2023/01/17 15:21:01;;;;;;;4.27;3.50;;;4.00;1.00;;;;;;6146813;23;21430;-95
2023/01/17 15:23:33;;;;;;;6.33;4.30;;;4.00;1.00;;;;;;6231135;23;20226;-95
2023/01/17 15:26:02;;;;;;;15.27;7.90;;;4.10;1.00;;;;;;6226770;23;20201;-96
2023/01/17 15:28:30;;;;;;;4.07;2.90;;;4.20;1.00;;;;;;6242170;23;20162;-96
2023/01/17 15:31:10;;;;;;;5.10;4.30;;;4.20;1.00;;;;;;6222743;23;20212;-96
2023/01/17 15:36:31;;;;;;;3.97;2.23;;;4.30;1.00;;;;;;6177775;23;20193;-96
2023/01/17 15:43:57;;;;;;;9.37;6.20;;;4.20;1.00;;;;;;6204811;23;20177;-96
2023/01/17 15:49:08;;;;;;;5.03;3.40;;;4.10;1.00;;;;;;6217568;23;20192;-96
2023/01/17 15:51:41;;;;;;;5.83;2.73;;;4.10;1.00;;;;;;6233943;23;20157;-96
2023/01/17 15:54:34;;;;;;;7.47;3.90;;;4.00;1.00;;;;;;6237618;23;20172;-96
2023/01/17 15:57:06;;;;;;;10.83;6.10;;;3.90;99.90;;;;;;6239731;23;20153;-96
2023/01/17 15:59:45;;;;;;;12.83;7.67;;;3.80;87.80;;;;;;6238351;23;20184;-96
2023/01/17 16:02:40;;;;;;;17.80;10.10;;;3.80;99.90;;;;;;6239957;23;20163;-96
2023/01/17 16:05:34;;;;;;;17.77;10.80;;;3.60;99.90;;;;;;6148596;23;20182;-96
2023/01/17 16:08:35;;;;;;;15.43;9.87;;;3.50;99.90;;;;;;6148753;23;20226;-96
2023/01/17 16:11:05;;;;;;;12.10;8.30;;;3.50;1.00;;;;;;6150692;23;20153;-96
2023/01/17 16:13:34;;;;;;;10.10;7.50;;;3.50;1.00;;;;;;6150920;23;20150;-96
2023/01/17 16:16:16;;;;;;;7.90;5.83;;;3.50;1.00;;;;;;6212891;23;20184;-96
2023/01/17 16:18:45;;;;;;;9.57;5.83;;;3.60;1.00;;;;;;6242999;23;20191;-96
2023/01/17 16:21:22;;;;;;;6.97;4.80;;;3.70;1.00;;;;;;6243500;23;20149;-96
2023/01/17 16:23:50;;;;;;;14.70;8.10;;;3.70;1.00;;;;;;6230097;23;20208;-95
2023/01/17 16:26:18;;;;;;;12.07;7.43;;;3.70;99.90;;;;;;6239063;23;20188;-96
2023/01/17 16:28:45;;;;;;;10.57;7.00;;;3.70;99.90;;;;;;6241357;23;20164;-96
2023/01/17 16:33:42;;;;;;;7.53;5.80;;;3.60;99.90;;;;;;6211893;23;20157;-95
2023/01/17 16:36:13;;;;;;;9.03;5.80;;;3.60;99.90;;;;;;6207352;23;20184;-95
2023/01/17 16:54:15;;;;;;;19.97;12.60;;;2.90;28.40;;;;;;6178147;23;21000;-94
2023/01/17 16:56:42;;;;;;;16.93;10.10;;;2.80;99.90;;;;;;6208647;23;20200;-95
2023/01/17 17:04:13;;;;;;;16.93;9.60;;;2.50;99.90;;;;;;6186507;23;20185;-96
2023/01/17 17:06:40;;;;;;;38.03;18.60;;;2.50;99.90;;;;;;6208357;23;20200;-95
2023/01/17 17:09:07;;;;;;;34.60;17.77;;;2.40;1.00;;;;;;6220039;23;20215;-95
2023/01/17 17:11:35;;;;;;;39.10;18.77;;;2.40;1.00;;;;;;6222588;23;20185;-93
2023/01/17 17:14:03;;;;;;;29.63;16.07;;;2.20;1.00;;;;;;6216404;23;20630;-93
2023/01/17 17:16:30;;;;;;;51.53;28.90;;;2.20;1.00;;;;;;6214897;23;20183;-92
2023/01/17 17:18:59;;;;;;;90.57;43.63;;;2.10;1.00;;;;;;6218201;23;20248;-93
2023/01/17 17:21:26;;;;;;;60.43;34.30;;;2.10;1.00;;;;;;6218897;23;20173;-92
2023/01/17 17:23:56;;;;;;;22.53;14.30;;;2.00;1.00;;;;;;6218380;23;20171;-92
2023/01/17 17:26:25;;;;;;;30.87;17.53;;;2.00;1.00;;;;;;6219220;23;20164;-93
2023/01/17 17:28:54;;;;;;;54.17;30.00;;;2.00;1.00;;;;;;6218466;23;20501;-93
2023/01/17 17:31:21;;;;;;;57.60;30.47;;;1.90;1.00;;;;;;6218960;23;20237;-92
2023/01/17 17:33:48;;;;;;;40.30;21.67;;;1.90;1.00;;;;;;6216909;23;20218;-92
2023/01/17 17:36:16;;;;;;;27.50;16.47;;;1.90;1.00;;;;;;6207044;23;20237;-93
2023/01/17 17:38:50;;;;;;;17.20;11.03;;;1.80;1.00;;;;;;6215797;23;20237;-92
2023/01/17 17:41:19;;;;;;;11.07;7.13;;;1.80;2.20;;;;;;6218991;23;20180;-93
2023/01/17 17:43:46;;;;;;;16.17;9.93;;;1.80;1.00;;;;;;6219229;23;20173;-91
2023/01/17 17:46:14;;;;;;;60.13;40.53;;;1.70;1.00;;;;;;6219073;23;20175;-93
2023/01/17 17:48:41;;;;;;;32.27;21.57;;;1.70;1.00;;;;;;6219120;23;20541;-93
2023/01/17 17:51:22;;;;;;;25.53;15.87;;;1.70;1.00;;;;;;6219206;23;20175;-92
2023/01/17 17:53:49;;;;;;;55.63;28.63;;;1.70;54.40;;;;;;6217991;23;20183;-91
2023/01/17 17:56:16;;;;;;;35.10;18.07;;;1.60;61.20;;;;;;6218926;23;20226;-92
2023/01/17 17:58:42;;;;;;;12.93;8.50;;;1.60;99.90;;;;;;6218282;23;20231;-91
2023/01/17 18:01:09;;;;;;;15.37;8.80;;;1.60;99.90;;;;;;6217771;23;20229;-91
2023/01/17 18:03:38;;;;;;;13.50;8.47;;;1.60;99.90;;;;;;6218516;23;20178;-91
2023/01/17 18:06:07;;;;;;;17.37;10.23;;;1.60;99.90;;;;;;6217786;23;20746;-91
2023/01/17 18:08:35;;;;;;;26.93;12.30;;;1.50;99.90;;;;;;6218642;23;20157;-93
2023/01/17 18:11:04;;;;;;;23.43;13.20;;;1.50;99.90;;;;;;6218520;23;20176;-92
2023/01/17 18:13:32;;;;;;;32.27;16.90;;;1.50;99.90;;;;;;6217662;23;20701;-91
2023/01/17 18:16:05;;;;;;;51.87;27.70;;;1.50;99.90;;;;;;6217691;23;20180;-92
2023/01/17 18:18:32;;;;;;;52.07;27.37;;;1.50;99.90;;;;;;6217215;23;20188;-92
2023/01/17 18:21:11;;;;;;;35.73;19.37;;;1.50;99.90;;;;;;6215879;23;20183;-92
2023/01/17 18:23:38;;;;;;;35.40;20.27;;;1.50;99.90;;;;;;6217341;23;20159;-93
2023/01/17 18:26:06;;;;;;;29.83;18.33;;;1.40;99.90;;;;;;6216692;23;20176;-94
2023/01/17 18:28:33;;;;;;;39.70;22.53;;;1.40;99.90;;;;;;6217269;23;20169;-94
2023/01/17 18:31:05;;;;;;;48.20;26.23;;;1.40;99.90;;;;;;6218086;23;20172;-94
2023/01/17 18:33:34;;;;;;;58.70;32.87;;;1.40;99.90;;;;;;6218505;23;20213;-93
2023/01/17 18:36:01;;;;;;;63.17;34.17;;;1.30;99.90;;;;;;6217793;23;20639;-93
2023/01/17 18:38:36;;;;;;;76.13;37.77;;;1.30;99.90;;;;;;6218423;23;20180;-94
2023/01/17 18:41:04;;;;;;;80.23;41.57;;;1.30;99.90;;;;;;6217806;23;20170;-93
2023/01/17 18:43:31;;;;;;;64.73;33.47;;;1.30;99.90;;;;;;6218125;23;20577;-93
2023/01/17 18:45:58;;;;;;;44.60;24.33;;;1.20;99.90;;;;;;6218239;23;20250;-94
2023/01/17 18:48:25;;;;;;;45.87;23.80;;;1.20;99.90;;;;;;6218467;23;20173;-93
2023/01/17 18:50:56;;;;;;;38.83;20.67;;;1.20;99.90;;;;;;6218401;23;20238;-94
2023/01/17 18:53:23;;;;;;;37.60;18.93;;;1.20;99.90;;;;;;6218252;23;20209;-94
2023/01/17 18:55:56;;;;;;;41.03;20.37;;;1.20;1.00;;;;;;6217625;23;20629;-93
2023/01/17 18:58:24;;;;;;;36.60;20.63;;;1.10;1.00;;;;;;6218080;23;20177;-93
2023/01/17 19:00:51;;;;;;;37.03;21.17;;;1.10;1.00;;;;;;6218253;23;20502;-93
2023/01/17 19:03:19;;;;;;;32.30;18.30;;;1.10;1.00;;;;;;6218359;23;20232;-92
2023/01/17 19:05:47;;;;;;;27.80;16.50;;;1.10;1.00;;;;;;6216583;23;20197;-92
2023/01/17 19:08:14;;;;;;;27.63;15.83;;;1.00;1.00;;;;;;6217921;23;20157;-93
2023/01/17 19:10:41;;;;;;;32.93;17.93;;;1.00;1.00;;;;;;6217666;23;20167;-93
2023/01/17 19:13:10;;;;;;;31.73;16.83;;;1.00;1.00;;;;;;6219276;23;20171;-93
2023/01/17 19:15:37;;;;;;;33.13;19.03;;;1.00;1.00;;;;;;6217146;23;20178;-92
2023/01/17 19:18:04;;;;;;;29.37;18.10;;;1.00;1.00;;;;;;6216476;23;20200;-95
2023/01/17 19:20:33;;;;;;;37.00;19.70;;;1.00;1.00;;;;;;6216980;23;20204;-94
2023/01/17 19:23:00;;;;;;;32.50;17.77;;;1.00;1.00;;;;;;6217027;23;20179;-93
2023/01/17 19:25:29;;;;;;;32.67;17.57;;;0.90;1.00;;;;;;6217741;23;20172;-94
2023/01/17 19:27:56;;;;;;;32.33;18.07;;;0.90;1.00;;;;;;6217129;23;20219;-94
2023/01/17 19:30:24;;;;;;;36.23;18.63;;;0.90;1.00;;;;;;6217593;23;20170;-93
2023/01/17 19:32:52;;;;;;;29.00;16.13;;;0.90;1.00;;;;;;6216520;23;20511;-93
2023/01/17 19:35:19;;;;;;;34.87;19.47;;;0.90;1.00;;;;;;6217586;23;20170;-93
2023/01/17 19:37:46;;;;;;;33.60;17.17;;;0.90;1.00;;;;;;6217703;23;20174;-93
2023/01/17 19:40:14;;;;;;;28.97;16.30;;;0.90;1.00;;;;;;6216661;23;20726;-93
2023/01/17 19:42:41;;;;;;;34.10;22.47;;;0.90;1.00;;;;;;6216202;23;20181;-93
2023/01/17 19:45:09;;;;;;;63.63;37.03;;;0.90;1.00;;;;;;6217190;23;20557;-93
2023/01/17 19:47:38;;;;;;;36.97;20.87;;;1.00;1.00;;;;;;6217638;23;20174;-93
2023/01/17 19:50:07;;;;;;;63.00;34.30;;;1.00;1.00;;;;;;6217526;23;20163;-93
2023/01/17 19:52:34;;;;;;;64.60;36.00;;;0.90;1.00;;;;;;6217562;23;20186;-93
2023/01/17 19:55:01;;;;;;;67.27;36.43;;;0.90;1.00;;;;;;6217888;23;20200;-93
2023/01/17 19:57:33;;;;;;;80.13;45.60;;;0.90;1.00;;;;;;6218135;23;20175;-93
2023/01/17 20:00:00;;;;;;;58.07;36.33;;;0.90;1.00;;;;;;6217826;23;20179;-92
2023/01/17 20:02:27;;;;;;;48.37;26.33;;;0.90;1.00;;;;;;6217384;23;20257;-92
2023/01/17 20:04:56;;;;;;;90.50;50.87;;;0.90;1.00;;;;;;6217617;23;20175;-93
2023/01/17 20:07:23;;;;;;;101.73;54.43;;;0.90;1.00;;;;;;6217261;23;20253;-91
2023/01/17 20:09:50;;;;;;;63.60;34.67;;;0.90;1.00;;;;;;6219826;23;20174;-92
2023/01/17 20:12:17;;;;;;;123.20;67.17;;;0.80;1.00;;;;;;6219295;23;20695;-93
2023/01/17 20:14:44;;;;;;;46.50;24.67;;;0.80;1.00;;;;;;6216548;23;20177;-92
2023/01/17 20:17:11;;;;;;;35.57;19.77;;;0.80;1.00;;;;;;6216126;23;20175;-92
2023/01/17 20:19:38;;;;;;;31.97;18.77;;;0.80;1.00;;;;;;6216118;23;20720;-93
2023/01/17 20:22:06;;;;;;;30.70;17.23;;;0.80;1.00;;;;;;6215679;23;20179;-93
2023/01/17 20:24:33;;;;;;;59.17;34.10;;;0.80;1.00;;;;;;6216352;23;20175;-91
2023/01/17 20:27:00;;;;;;;48.53;25.47;;;0.70;1.00;;;;;;6216013;23;20515;-92
2023/01/17 20:29:27;;;;;;;36.67;18.30;;;0.70;1.00;;;;;;6216110;23;20220;-92
2023/01/17 20:31:54;;;;;;;30.67;15.17;;;0.70;1.00;;;;;;6215624;23;20167;-91
2023/01/17 20:34:24;;;;;;;22.87;12.07;;;0.70;1.00;;;;;;6216874;23;20175;-92
2023/01/17 20:36:56;;;;;;;63.47;30.30;;;0.70;1.00;;;;;;6215900;23;20159;-92
2023/01/17 20:39:24;;;;;;;33.57;16.77;;;0.80;29.10;;;;;;6216594;23;20215;-93
2023/01/17 20:41:51;;;;;;;18.43;9.73;;;0.80;99.90;;;;;;6216206;23;20229;-93
2023/01/17 20:44:19;;;;;;;14.47;8.40;;;0.90;72.80;;;;;;6215766;23;20790;-93
2023/01/17 20:46:46;;;;;;;13.47;7.33;;;0.90;1.00;;;;;;6216677;23;20542;-93
2023/01/17 20:49:17;;;;;;;20.07;13.30;;;0.90;1.00;;;;;;6216152;23;20207;-92
2023/01/17 20:51:45;;;;;;;22.43;14.33;;;0.80;1.00;;;;;;6215822;23;20163;-93
2023/01/17 20:54:14;;;;;;;26.63;16.23;;;0.80;1.00;;;;;;6215808;23;20174;-92
2023/01/17 20:56:45;;;;;;;36.40;20.20;;;0.80;1.00;;;;;;6216205;23;20249;-92
2023/01/17 20:59:14;;;;;;;37.30;19.33;;;0.70;1.00;;;;;;6216363;23;20205;-92
2023/01/17 21:01:43;;;;;;;50.03;21.53;;;0.70;1.00;;;;;;6215947;23;20197;-93
2023/01/17 21:04:10;;;;;;;44.60;20.03;;;0.70;1.00;;;;;;6215845;23;20253;-93
2023/01/17 21:06:38;;;;;;;37.13;18.53;;;0.60;1.00;;;;;;6215563;23;20536;-93
